createdAt,value
2022-10-11T00:21:57.104Z,18.25
2022-10-11T00:24:27.247Z,17.00
2022-10-11T00:26:59.345Z,18.30
2022-10-11T00:29:29.732Z,20.75
2022-10-11T00:32:01.434Z,19.25
2022-10-11T00:34:32.580Z,19.05
2022-10-11T00:37:06.014Z,19.60
2022-10-11T00:39:36.768Z,20.95
2022-10-11T00:42:10.446Z,19.67
2022-10-11T00:47:18.538Z,19.45
2022-10-11T00:49:53.812Z,19.33
2022-10-11T00:52:33.656Z,22.10
2022-10-11T00:55:09.125Z,20.13
2022-10-11T00:57:42.919Z,21.52
2022-10-11T01:00:17.456Z,20.98
2022-10-11T01:02:48.531Z,22.13
2022-10-11T01:05:29.537Z,22.25
2022-10-11T01:08:07.755Z,20.58
2022-10-11T01:10:40.040Z,19.55
2022-10-11T01:13:20.852Z,22.60
2022-10-11T01:16:00.753Z,20.88
2022-10-11T01:18:37.958Z,22.50
2022-10-11T01:21:14.912Z,23.63
2022-10-11T01:24:37.299Z,24.13
2022-10-11T01:27:39.644Z,23.45
2022-10-11T01:30:35.069Z,23.48
2022-10-11T01:33:28.590Z,22.58
2022-10-11T01:36:08.010Z,23.10
2022-10-11T01:38:46.572Z,23.90
2022-10-11T01:41:24.411Z,22.48
2022-10-11T01:44:00.613Z,21.38
2022-10-11T01:46:39.955Z,25.25
2022-10-11T01:49:11.156Z,25.50
2022-10-11T01:51:47.339Z,26.13
2022-10-11T01:55:08.639Z,23.58
2022-10-11T01:57:59.273Z,25.50
2022-10-11T02:00:44.469Z,23.42
2022-10-11T02:03:33.666Z,28.33
2022-10-11T02:06:11.542Z,69.38
2022-10-11T02:08:54.512Z,42.65
2022-10-11T02:11:29.253Z,41.53
2022-10-11T02:14:05.992Z,51.70
2022-10-11T02:16:43.488Z,43.15
2022-10-11T02:19:21.653Z,37.03
2022-10-11T02:21:57.514Z,36.45
2022-10-11T02:24:31.304Z,29.35
2022-10-11T02:27:04.608Z,26.25
2022-10-11T02:29:38.958Z,25.83
2022-10-11T02:32:11.363Z,25.83
2022-10-11T02:34:50.738Z,26.85
2022-10-11T02:37:30.723Z,29.10
2022-10-11T02:40:09.300Z,27.55
2022-10-11T02:42:45.856Z,25.70
2022-10-11T02:45:20.770Z,28.27
2022-10-11T02:47:52.227Z,26.85
2022-10-11T02:50:26.719Z,26.50
2022-10-11T02:52:57.916Z,26.25
2022-10-11T02:55:31.200Z,24.75
2022-10-11T02:58:01.804Z,26.58
2022-10-11T03:00:33.916Z,25.63
2022-10-11T03:03:05.141Z,26.35
2022-10-11T03:05:40.892Z,27.70
2022-10-11T03:08:13.467Z,28.63
2022-10-11T03:10:44.689Z,29.48
2022-10-11T03:13:18.354Z,25.95
2022-10-11T03:16:07.405Z,27.83
2022-10-11T03:18:39.126Z,29.38
2022-10-11T03:21:12.475Z,29.52
2022-10-11T03:23:44.065Z,29.50
2022-10-11T03:26:15.063Z,30.15
2022-10-11T03:28:45.784Z,27.73
2022-10-11T03:31:18.721Z,27.95
2022-10-11T03:33:49.824Z,29.07
2022-10-11T03:36:23.718Z,28.25
2022-10-11T03:38:54.725Z,28.40
2022-10-11T03:41:29.831Z,30.23
2022-10-11T03:44:00.943Z,30.45
2022-10-11T03:46:32.482Z,36.72
2022-10-11T03:49:04.971Z,39.63
2022-10-11T03:51:39.570Z,35.33
2022-10-11T03:54:09.720Z,30.33
2022-10-11T03:56:40.784Z,32.72
2022-10-11T03:59:11.728Z,29.88
2022-10-11T04:01:43.096Z,29.45
2022-10-11T04:04:16.768Z,28.90
2022-10-11T04:06:50.798Z,29.45
2022-10-11T04:09:22.112Z,30.88
2022-10-11T04:11:53.461Z,30.83
2022-10-11T04:14:23.797Z,30.45
2022-10-11T04:16:59.542Z,29.60
2022-10-11T04:19:31.861Z,34.33
2022-10-11T04:22:08.479Z,35.45
2022-10-11T04:24:38.731Z,32.45
2022-10-11T04:27:10.542Z,27.67
2022-10-11T04:29:40.766Z,27.65
2022-10-11T04:32:12.420Z,28.17
2022-10-11T04:34:42.804Z,28.90
2022-10-11T04:37:16.375Z,28.08
2022-10-11T04:39:47.723Z,30.13
2022-10-11T04:42:20.320Z,27.95
2022-10-11T04:44:51.078Z,30.42
2022-10-11T04:47:22.023Z,28.13
2022-10-11T04:49:52.944Z,27.33
2022-10-11T04:52:26.409Z,26.08
2022-10-11T04:54:58.205Z,26.35
2022-10-11T04:57:28.764Z,27.77
2022-10-11T05:00:00.099Z,28.00
2022-10-11T05:02:30.798Z,29.02
2022-10-11T05:05:01.767Z,28.55
2022-10-11T05:07:35.381Z,29.90
2022-10-11T05:10:07.327Z,30.27
2022-10-11T05:12:39.123Z,30.60
2022-10-11T05:15:12.366Z,32.10
2022-10-11T05:17:43.777Z,28.23
2022-10-11T05:20:16.326Z,29.75
2022-10-11T05:22:49.590Z,31.23
2022-10-11T05:25:20.999Z,31.75
2022-10-11T05:27:52.381Z,30.60
2022-10-11T05:30:24.758Z,30.65
2022-10-11T05:32:56.203Z,31.80
2022-10-11T05:35:26.827Z,32.47
2022-10-11T05:38:01.039Z,32.70
2022-10-11T05:40:34.248Z,32.47
2022-10-11T05:43:04.942Z,35.78
2022-10-11T05:45:38.853Z,33.13
2022-10-11T05:48:10.955Z,32.60
2022-10-11T05:50:42.843Z,33.08
2022-10-11T05:53:16.460Z,78.47
2022-10-11T05:55:48.220Z,41.00
2022-10-11T05:58:20.230Z,31.73
2022-10-11T06:00:54.988Z,33.00
2022-10-11T06:03:26.927Z,31.05
2022-10-11T06:05:57.946Z,29.80
2022-10-11T06:08:32.100Z,32.67
2022-10-11T06:11:02.899Z,30.55
2022-10-11T06:13:34.418Z,35.22
2022-10-11T06:16:08.085Z,36.13
2022-10-11T06:18:38.767Z,36.35
2022-10-11T06:21:09.350Z,34.70
2022-10-11T06:23:43.098Z,39.72
2022-10-11T06:28:45.505Z,34.80
2022-10-11T06:31:17.047Z,30.85
2022-10-11T06:33:48.718Z,31.70
2022-10-11T06:36:19.623Z,30.95
2022-10-11T06:38:55.079Z,31.35
2022-10-11T06:41:28.280Z,33.30
2022-10-11T06:43:59.604Z,30.33
2022-10-11T06:46:30.660Z,29.30
2022-10-11T06:49:01.997Z,32.13
2022-10-11T06:51:33.314Z,50.58
2022-10-11T06:54:10.024Z,40.67
2022-10-11T06:56:40.975Z,39.60
2022-10-11T06:59:12.280Z,65.88
2022-10-11T07:01:45.640Z,67.90
2022-10-11T07:04:16.089Z,99.30
2022-10-11T07:06:46.826Z,67.65
2022-10-11T07:09:20.420Z,32.88
2022-10-11T07:14:22.053Z,31.15
2022-10-11T07:16:53.718Z,29.58
2022-10-11T07:19:24.951Z,29.20
2022-10-11T07:21:55.965Z,29.13
2022-10-11T07:24:29.755Z,32.80
2022-10-11T07:27:00.781Z,29.98
2022-10-11T07:29:32.717Z,29.80
2022-10-11T07:32:04.168Z,28.13
2022-10-11T07:34:36.244Z,31.25
2022-10-11T07:37:07.242Z,29.20
2022-10-11T07:39:42.145Z,29.83
2022-10-11T07:42:12.823Z,29.55
2022-10-11T07:44:44.092Z,29.73
2022-10-11T07:47:14.801Z,29.67
2022-10-11T07:49:45.830Z,27.77
2022-10-11T07:52:16.833Z,28.20
2022-10-11T07:54:51.533Z,28.90
2022-10-11T07:57:21.771Z,27.25
2022-10-11T07:59:53.306Z,25.48
2022-10-11T08:02:23.782Z,26.17
2022-10-11T08:04:55.259Z,27.40
2022-10-11T08:07:25.816Z,26.23
2022-10-11T08:09:59.790Z,24.08
2022-10-11T08:12:33.671Z,23.67
2022-10-11T08:15:04.481Z,24.10
2022-10-11T08:17:36.099Z,23.35
2022-10-11T08:20:06.691Z,21.13
2022-10-11T08:22:39.994Z,22.08
2022-10-11T08:25:13.725Z,21.70
2022-10-11T08:27:45.139Z,22.20
2022-10-11T08:30:17.361Z,22.40
2022-10-11T08:32:49.108Z,21.90
2022-10-11T08:35:20.262Z,22.88
2022-10-11T08:37:51.717Z,22.42
2022-10-11T08:40:30.433Z,21.75
2022-10-11T08:43:07.839Z,20.90
2022-10-11T08:45:46.340Z,22.83
2022-10-11T08:48:21.113Z,19.77
2022-10-11T08:50:56.019Z,21.77
2022-10-11T08:53:35.213Z,21.42
2022-10-11T08:56:10.172Z,21.23
2022-10-11T08:58:44.679Z,20.92
2022-10-11T09:01:20.394Z,20.42
2022-10-11T09:03:53.514Z,19.92
2022-10-11T09:06:34.233Z,20.00
2022-10-11T09:09:16.807Z,21.05
2022-10-11T09:12:06.689Z,20.73
2022-10-11T09:15:01.168Z,20.40
2022-10-11T09:17:46.290Z,20.05
2022-10-11T09:20:34.348Z,19.38
2022-10-11T09:23:08.322Z,18.70
2022-10-11T09:25:47.267Z,19.73
2022-10-11T09:28:31.263Z,19.65
2022-10-11T09:31:03.645Z,19.05
2022-10-11T09:33:39.095Z,19.83
2022-10-11T09:36:22.066Z,20.38
2022-10-11T09:39:06.341Z,19.07
2022-10-11T09:41:46.930Z,19.77
2022-10-11T09:44:27.980Z,19.83
2022-10-11T09:47:01.136Z,18.65
2022-10-11T09:49:36.359Z,17.92
2022-10-11T09:52:15.060Z,17.58
2022-10-11T09:54:50.091Z,17.95
2022-10-11T09:57:26.781Z,16.58
2022-10-11T10:00:10.070Z,17.88
2022-10-11T10:02:47.142Z,17.42
2022-10-11T10:05:23.674Z,16.38
2022-10-11T10:08:23.236Z,17.65
2022-10-11T10:11:03.751Z,17.65
2022-10-11T10:13:45.112Z,17.25
2022-10-11T10:16:28.848Z,17.33
2022-10-11T10:21:34.830Z,16.80
2022-10-11T10:24:11.248Z,16.70
2022-10-11T10:26:42.478Z,16.20
2022-10-11T10:29:20.443Z,15.68
2022-10-11T10:32:15.200Z,16.67
2022-10-11T10:34:59.892Z,15.77
2022-10-11T10:37:35.402Z,16.25
2022-10-11T10:40:12.247Z,16.30
2022-10-11T10:42:43.651Z,14.38
2022-10-11T10:45:22.162Z,15.50
2022-10-11T10:48:12.702Z,16.60
2022-10-11T10:50:55.877Z,14.68
2022-10-11T10:53:35.572Z,14.15
2022-10-11T10:56:14.562Z,13.40
2022-10-11T10:58:56.865Z,15.07
2022-10-11T11:01:31.246Z,13.75
2022-10-11T11:04:18.599Z,14.55
2022-10-11T11:06:53.273Z,15.02
2022-10-11T11:09:40.847Z,15.15
2022-10-11T11:12:29.420Z,14.20
2022-10-11T11:15:06.589Z,15.05
2022-10-11T11:17:50.916Z,14.30
2022-10-11T11:20:36.672Z,14.10
2022-10-11T11:23:20.882Z,14.13
2022-10-11T11:26:00.664Z,14.30
2022-10-11T11:28:55.484Z,13.45
2022-10-11T11:31:43.001Z,15.45
2022-10-11T11:34:24.197Z,14.40
2022-10-11T11:37:01.594Z,14.18
2022-10-11T11:39:39.344Z,14.45
2022-10-11T11:42:17.079Z,13.75
2022-10-11T11:44:51.313Z,13.15
2022-10-11T11:47:27.752Z,15.52
2022-10-11T11:50:02.776Z,15.25
2022-10-11T11:52:41.905Z,13.90
2022-10-11T11:55:20.465Z,14.88
2022-10-11T11:58:07.663Z,15.80
2022-10-11T12:00:52.025Z,13.68
2022-10-11T12:03:28.953Z,16.20
2022-10-11T12:06:27.064Z,14.80
2022-10-11T12:09:09.578Z,14.70
2022-10-11T12:11:56.035Z,14.23
2022-10-11T12:14:38.200Z,14.27
2022-10-11T12:17:16.226Z,13.98
2022-10-11T12:20:16.639Z,13.77
2022-10-11T12:23:04.015Z,14.60
2022-10-11T12:26:16.040Z,13.48
2022-10-11T12:29:37.582Z,15.70
2022-10-11T12:32:51.263Z,14.70
2022-10-11T12:36:02.716Z,14.53
2022-10-11T12:41:40.714Z,16.13
2022-10-11T12:44:24.342Z,17.27
2022-10-11T12:47:17.314Z,16.75
2022-10-11T12:50:03.831Z,16.92
2022-10-11T12:52:45.605Z,15.93
2022-10-11T12:55:33.074Z,16.10
2022-10-11T12:58:26.856Z,15.25
2022-10-11T13:01:21.840Z,16.00
2022-10-11T13:04:03.878Z,14.45
2022-10-11T13:06:39.276Z,16.50
2022-10-11T13:09:26.296Z,15.23
2022-10-11T13:12:02.555Z,45.97
2022-10-11T13:14:38.127Z,16.25
2022-10-11T13:17:19.650Z,16.38
2022-10-11T13:20:01.617Z,17.05
2022-10-11T13:22:31.996Z,16.70
2022-10-11T13:25:07.086Z,18.20
2022-10-11T13:27:41.065Z,16.45
2022-10-11T13:30:21.863Z,15.93
2022-10-11T13:32:56.333Z,15.90
2022-10-11T13:35:32.596Z,15.95
2022-10-11T13:38:05.666Z,15.30
2022-10-11T13:40:37.267Z,17.38
2022-10-11T13:43:09.220Z,15.73
2022-10-11T13:45:42.133Z,15.18
2022-10-11T13:48:19.530Z,15.75
2022-10-11T13:51:08.935Z,15.27
2022-10-11T13:53:41.154Z,15.38
2022-10-11T13:56:13.048Z,15.45
2022-10-11T13:58:49.658Z,14.48
2022-10-11T14:01:25.160Z,15.30
2022-10-11T14:04:03.699Z,14.07
2022-10-11T14:06:45.668Z,15.43
2022-10-11T14:09:26.650Z,15.35
2022-10-11T14:11:57.993Z,21.52
2022-10-11T14:14:45.085Z,26.20
2022-10-11T14:17:19.311Z,37.50
2022-10-11T14:20:12.003Z,29.08
2022-10-11T14:22:45.300Z,24.05
2022-10-11T14:25:16.388Z,20.23
2022-10-11T14:27:47.196Z,23.60
2022-10-11T14:30:25.740Z,18.40
2022-10-11T14:32:59.935Z,19.92
2022-10-11T14:35:43.494Z,27.25
2022-10-11T14:38:15.115Z,28.40
2022-10-11T14:40:45.980Z,30.33
2022-10-11T14:43:17.287Z,29.40
2022-10-11T14:45:49.573Z,27.55
2022-10-11T14:48:42.937Z,17.80
2022-10-11T14:51:17.526Z,16.77
2022-10-11T14:53:47.992Z,16.20
2022-10-11T14:56:21.663Z,16.17
2022-10-11T14:58:53.608Z,15.88
2022-10-11T15:01:24.393Z,17.75
2022-10-11T15:03:56.251Z,17.00
2022-10-11T15:06:39.529Z,16.45
2022-10-11T15:09:10.478Z,18.27
2022-10-11T15:11:41.174Z,16.10
2022-10-11T15:14:12.915Z,16.38
2022-10-11T15:16:47.015Z,15.70
2022-10-11T15:19:20.970Z,15.65
2022-10-11T15:21:54.083Z,15.90
2022-10-11T15:24:24.988Z,15.48
2022-10-11T15:26:55.963Z,16.55
2022-10-11T15:29:27.483Z,14.88
2022-10-11T15:31:57.989Z,15.18
2022-10-11T15:34:30.850Z,15.45
2022-10-11T15:37:04.505Z,15.73
2022-10-11T15:39:35.131Z,15.27
2022-10-11T15:42:06.978Z,15.95
2022-10-11T15:44:38.504Z,14.35
2022-10-11T15:47:09.304Z,13.45
2022-10-11T15:49:40.964Z,15.48
2022-10-11T15:52:14.743Z,15.25
2022-10-11T15:54:45.394Z,14.82
2022-10-11T15:57:15.929Z,15.13
2022-10-11T15:59:48.738Z,15.18
2022-10-11T16:02:19.791Z,13.93
2022-10-11T16:04:51.592Z,16.30
2022-10-11T16:07:24.925Z,15.45
2022-10-11T16:09:55.168Z,14.95
2022-10-11T16:12:26.170Z,17.50
2022-10-11T16:14:57.390Z,25.63
2022-10-11T16:17:28.336Z,41.15
2022-10-11T16:20:00.541Z,39.28
2022-10-11T16:22:33.617Z,137.27
2022-10-11T16:25:04.669Z,82.57
2022-10-11T16:27:35.831Z,91.82
2022-10-11T16:30:14.444Z,96.00
2022-10-11T16:32:45.379Z,71.60
2022-10-11T16:35:20.365Z,57.03
2022-10-11T16:37:53.647Z,44.75
2022-10-11T16:40:26.805Z,39.85
2022-10-11T16:42:58.516Z,40.35
2022-10-11T16:45:30.302Z,49.20
2022-10-11T16:48:02.439Z,60.25
2022-10-11T16:50:38.319Z,43.38
2022-10-11T16:53:15.818Z,31.15
2022-10-11T16:55:46.251Z,28.70
2022-10-11T16:58:18.010Z,31.58
2022-10-11T17:00:51.211Z,29.73
2022-10-11T17:03:22.174Z,33.85
2022-10-11T17:05:54.264Z,34.25
2022-10-11T17:08:32.640Z,37.80
2022-10-11T17:11:04.142Z,37.55
2022-10-11T17:13:35.557Z,36.42
2022-10-11T17:16:08.378Z,32.22
2022-10-11T17:18:39.528Z,27.48
2022-10-11T17:21:15.300Z,25.65
2022-10-11T17:23:49.260Z,25.23
2022-10-11T17:26:24.585Z,24.42
2022-10-11T17:28:55.538Z,23.73
2022-10-11T17:31:28.266Z,22.40
2022-10-11T17:34:02.159Z,22.27
2022-10-11T17:36:35.259Z,22.58
2022-10-11T17:39:12.007Z,22.17
2022-10-11T17:41:43.713Z,22.48
2022-10-11T17:44:18.211Z,23.75
2022-10-11T17:46:50.373Z,22.17
2022-10-11T17:49:21.244Z,25.15
2022-10-11T17:51:55.269Z,24.20
2022-10-11T17:54:30.491Z,34.17
2022-10-11T17:57:03.194Z,32.90
2022-10-11T17:59:35.618Z,35.42
2022-10-11T18:02:06.910Z,33.33
2022-10-11T18:04:38.646Z,33.53
2022-10-11T18:07:10.979Z,42.40
2022-10-11T18:09:44.826Z,36.83
2022-10-11T18:12:16.520Z,36.53
2022-10-11T18:14:48.005Z,36.63
2022-10-11T18:17:18.542Z,39.63
2022-10-11T18:19:48.972Z,37.30
2022-10-11T18:22:19.048Z,39.03
2022-10-11T18:24:51.828Z,40.85
2022-10-11T18:27:21.994Z,42.80
2022-10-11T18:29:52.270Z,39.45
2022-10-11T18:32:22.388Z,39.47
2022-10-11T18:34:52.945Z,41.33
2022-10-11T18:37:23.321Z,41.67
2022-10-11T18:39:56.369Z,43.10
2022-10-11T18:42:26.537Z,44.58
2022-10-11T18:44:57.318Z,44.92
2022-10-11T18:47:27.857Z,43.67
2022-10-11T18:49:58.057Z,45.55
2022-10-11T18:52:28.485Z,48.50
2022-10-11T18:55:03.480Z,51.80
2022-10-11T18:57:34.352Z,48.33
2022-10-11T19:00:16.829Z,48.33
2022-10-11T19:02:57.823Z,48.92
2022-10-11T19:05:28.191Z,54.10
2022-10-11T19:08:00.379Z,68.00
2022-10-11T19:10:33.314Z,79.32
2022-10-11T19:13:03.608Z,143.07
2022-10-11T19:15:34.419Z,171.77
2022-10-11T19:18:04.699Z,139.43
2022-10-11T19:20:37.455Z,174.00
2022-10-11T19:23:07.934Z,193.37
2022-10-11T19:25:41.231Z,140.77
2022-10-11T19:28:14.941Z,138.02
2022-10-11T19:30:47.863Z,114.65
2022-10-11T19:33:18.286Z,129.38
2022-10-11T19:35:56.818Z,136.82
2022-10-11T19:38:27.226Z,144.90
2022-10-11T19:41:00.280Z,128.60
2022-10-11T19:43:31.030Z,95.60
2022-10-11T19:46:04.637Z,106.03
2022-10-11T19:51:06.110Z,82.93
2022-10-11T19:53:36.558Z,78.50
2022-10-11T19:56:12.365Z,79.13
2022-10-11T19:58:43.002Z,61.35
2022-10-11T20:01:16.521Z,46.30
2022-10-11T20:03:47.989Z,42.55
2022-10-11T20:06:18.655Z,44.45
2022-10-11T20:08:59.802Z,38.78
2022-10-11T20:11:42.336Z,36.47
2022-10-11T20:14:12.376Z,38.00
2022-10-11T20:16:42.699Z,36.17
2022-10-11T20:19:12.859Z,34.78
2022-10-11T20:21:42.945Z,33.80
2022-10-11T20:24:13.141Z,33.75
2022-10-11T20:26:46.614Z,33.15
2022-10-11T20:29:17.501Z,31.90
2022-10-11T20:31:47.724Z,33.92
2022-10-11T20:34:17.876Z,32.15
2022-10-11T20:36:49.288Z,32.42
2022-10-11T20:39:20.223Z,32.28
2022-10-11T20:41:53.231Z,32.53
2022-10-11T20:44:23.771Z,32.83
2022-10-11T20:46:54.228Z,32.67
2022-10-11T20:49:24.464Z,33.90
2022-10-11T20:51:54.756Z,33.85
2022-10-11T20:54:24.846Z,34.97
2022-10-11T20:56:57.768Z,31.75
2022-10-11T20:59:28.080Z,32.13
2022-10-11T21:01:58.341Z,30.75
2022-10-11T21:04:28.368Z,30.40
2022-10-11T21:06:58.575Z,30.75
2022-10-11T21:09:28.786Z,29.65
2022-10-11T21:12:03.183Z,30.50
2022-10-11T21:14:33.426Z,32.28
2022-10-11T21:17:03.644Z,31.98
2022-10-11T21:19:33.835Z,30.20
2022-10-11T21:22:04.044Z,33.90
2022-10-11T21:24:34.025Z,30.25
2022-10-11T21:27:07.041Z,33.60
2022-10-11T21:29:37.071Z,31.40
2022-10-11T21:32:10.821Z,32.55
2022-10-11T21:34:43.494Z,30.48
2022-10-11T21:37:13.759Z,31.83
2022-10-11T21:39:43.824Z,33.42
2022-10-11T21:42:16.680Z,34.17
2022-10-11T21:44:46.904Z,36.07
2022-10-11T21:47:17.819Z,31.77
2022-10-11T21:49:48.180Z,30.67
2022-10-11T21:52:18.454Z,31.50
2022-10-11T21:54:48.459Z,29.73
2022-10-11T21:57:21.168Z,33.05
2022-10-11T21:59:51.392Z,32.95
2022-10-11T22:02:21.514Z,35.25
2022-10-11T22:04:51.545Z,32.45
2022-10-11T22:10:09.534Z,34.70
2022-10-11T22:12:42.179Z,33.17
2022-10-11T22:15:13.645Z,33.42
2022-10-11T22:17:43.673Z,33.20
2022-10-11T22:20:14.034Z,33.65
2022-10-11T22:22:44.507Z,36.28
2022-10-11T22:25:14.671Z,34.72
2022-10-11T22:27:48.130Z,36.35
2022-10-11T22:30:18.464Z,34.28
2022-10-11T22:32:48.965Z,39.05
2022-10-11T22:35:19.112Z,40.10
2022-10-11T22:37:50.423Z,40.42
2022-10-11T22:40:20.969Z,40.75
2022-10-11T22:42:53.703Z,39.53
2022-10-11T22:45:24.423Z,37.38
2022-10-11T22:47:54.614Z,38.13
2022-10-11T22:50:24.948Z,32.72
2022-10-11T22:52:55.321Z,36.15
2022-10-11T22:55:26.262Z,41.80
2022-10-11T22:57:59.059Z,39.60
2022-10-11T23:00:32.634Z,38.17
2022-10-11T23:03:03.136Z,40.53
2022-10-11T23:05:33.364Z,38.17
2022-10-11T23:08:03.506Z,39.25
2022-10-11T23:10:35.079Z,41.83
2022-10-11T23:13:07.751Z,44.55
2022-10-11T23:15:38.447Z,42.88
2022-10-11T23:18:08.794Z,40.55
2022-10-11T23:20:40.251Z,39.83
2022-10-11T23:23:10.554Z,42.20
2022-10-11T23:25:40.725Z,38.58
2022-10-11T23:28:13.666Z,40.53
2022-10-11T23:30:47.553Z,38.27
2022-10-11T23:33:17.692Z,36.10
2022-10-11T23:35:47.694Z,40.05
2022-10-11T23:38:17.690Z,40.40
2022-10-11T23:40:47.732Z,37.97
2022-10-11T23:43:20.780Z,37.17
2022-10-11T23:45:52.197Z,38.58
2022-10-11T23:48:22.415Z,37.35
2022-10-11T23:50:52.561Z,44.33
2022-10-11T23:53:22.537Z,45.45
2022-10-11T23:55:52.515Z,45.47
2022-10-11T23:58:25.143Z,47.45
